Adamovichi, Belarus

3:38 AM +03 on May 01, 2017 (GMT +0300)
Unnamed Road | | Change Station

Elev 583 ft 54.43 °N, 27.33 °E | Updated 57 minutes ago

Overcast
Overcast
39.2 °F
Feels Like 39 °F
N
2.5
Wind Variable Wind from ENE
Gusts 6.8 mph

Today
High -- | Low -- °F
--% Chance of Precip.
Yesterday
High -- | Low -- °F
Precip. -- in
Pressure 30.18 in
Visibility 4.3 miles
Clouds Mostly Cloudy 600 ft
Mostly Cloudy 1900 ft
Windchill 39 °F
Dew Point 36 °F
Humidity 88%
Rainfall Not available.
Snow Depth Not available.
5:35 AM 8:45 PM
Waxing Crescent, 27% visible
METAR UMMS 010030Z 35006G09MPS 7000 -SHRA BKN006 BKN019CB 03/02 Q1022 R31/290055 NOSIG RMK QBB200
Pressure 30.18 in
Visibility 4.3 miles
Clouds Mostly Cloudy 600 ft
Mostly Cloudy 1900 ft
Windchill 39 °F
Dew Point 36 °F
Humidity 88%
Rainfall Not available.
Snow Depth Not available.
5:35 AM 8:45 PM
Waxing Crescent, 27% visible
METAR UMMS 010030Z 35006G09MPS 7000 -SHRA BKN006 BKN019CB 03/02 Q1022 R31/290055 NOSIG RMK QBB200

Get Severe Weather Alerts

Thanks for signing up!

Be on the lookout for a verification email in your inbox.

You'll start receiving the daily forecast at 8 AM.

×

10-Day Weather Forecast

×

Almanac

Astronomy

May. 01, 2017 Rise Set
Actual Time
Civil Twilight
Nautical Twilight
Astronomical Twilight
Moon
Length of Visible Light
Length of Day
Tomorrow will be .
, % of the Moon is Illuminated

Today's Extremes

Country Highs Country Lows

Community

WunderPhotos

WunderBlog® & News

Nearby

Air Quality

  Air Quality AQ Index Pollutant
Not available.

Snow Depth

Station Depth Elevation

Earthquake Activity

City Distance Mag. Time & Date
Minimum magnitude displayed is 2.5.

Coastal Water Temperatures

Place Temperature

Stations

Nearby Weather Stations

Station Location Temp. Windchill Dew Point Humidity Wind Precip. Elev Updated Type